EmailTwitter


Observations de surface / France / LFBO (07630)

Régions: Québec | Canada | États-Unis | Europe | France | UK | Ailleurs
Station
Affichage
Infos & localisation pour LFBO (07630) | Aide pour décoder les METARs

Observations prises le 2019-04-23 à 18H00 UTC à TOULOUSE/BLAGNAC, FR (LFBO)

Température: 15.0 Celsius

Point de rosée: 12.0 Celsius

Humidité relative: 82%

Facteur vent (rafales): 12.

Vents: Sud-est à 30 km/h ou 16 noeuds.

Rafale du vent: 56 km/h ou 30 noeuds.

Pression au niveau moyen de la mer: 99.40 kilopascals.

Observation METAR:

LFBO 231800Z AUTO 13016G30KT CAVOK 15/12 Q0994 BECMG 14016KT=